createdAt,value
2023-01-29T00:02:15.907Z,20.02
2023-01-29T00:04:43.431Z,21.63
2023-01-29T00:07:10.980Z,19.50
2023-01-29T00:09:38.594Z,25.30
2023-01-29T00:12:07.523Z,25.27
2023-01-29T00:14:35.041Z,22.67
2023-01-29T00:17:04.095Z,20.88
2023-01-29T00:19:31.669Z,20.50
2023-01-29T00:21:59.198Z,23.20
2023-01-29T00:24:26.892Z,19.83
2023-01-29T00:26:54.413Z,18.65
2023-01-29T00:29:22.045Z,20.35
2023-01-29T00:31:50.117Z,24.25
2023-01-29T00:34:19.318Z,22.05
2023-01-29T00:36:46.847Z,20.20
2023-01-29T00:39:14.350Z,20.80
2023-01-29T00:41:59.555Z,17.95
2023-01-29T00:44:44.654Z,18.35
2023-01-29T00:47:30.887Z,25.85
2023-01-29T00:50:00.325Z,17.90
2023-01-29T00:52:28.691Z,21.50
2023-01-29T00:54:57.890Z,20.05
2023-01-29T00:57:27.514Z,20.20
2023-01-29T00:59:55.973Z,20.05
2023-01-29T01:02:42.595Z,20.60
2023-01-29T01:05:17.794Z,22.08
2023-01-29T01:07:46.410Z,20.00
2023-01-29T01:10:22.537Z,18.73
2023-01-29T01:12:53.541Z,21.42
2023-01-29T01:15:21.337Z,17.48
2023-01-29T01:17:49.628Z,17.20
2023-01-29T01:20:19.172Z,16.85
2023-01-29T01:22:46.838Z,18.17
2023-01-29T01:25:14.602Z,18.27
2023-01-29T01:27:42.626Z,18.10
2023-01-29T01:30:12.776Z,14.95
2023-01-29T01:32:41.111Z,19.15
2023-01-29T01:35:10.142Z,16.05
2023-01-29T01:37:39.357Z,16.40
2023-01-29T01:40:12.865Z,17.02
2023-01-29T01:42:40.706Z,14.50
2023-01-29T01:45:18.688Z,18.10
2023-01-29T01:47:48.897Z,16.73
2023-01-29T01:50:21.143Z,16.92
2023-01-29T01:52:53.943Z,14.23
2023-01-29T01:55:26.959Z,16.45
2023-01-29T01:57:58.057Z,15.85
2023-01-29T02:00:26.973Z,18.77
2023-01-29T02:03:13.002Z,20.35
2023-01-29T02:05:59.598Z,18.20
2023-01-29T02:08:50.988Z,16.63
2023-01-29T02:11:19.117Z,16.85
2023-01-29T02:13:47.259Z,17.80
2023-01-29T02:16:14.770Z,17.20
2023-01-29T02:18:42.277Z,19.05
2023-01-29T02:21:31.284Z,17.52
2023-01-29T02:24:33.355Z,17.17
2023-01-29T02:27:09.857Z,14.77
2023-01-29T02:29:51.440Z,16.38
2023-01-29T02:32:26.157Z,15.88
2023-01-29T02:35:21.957Z,20.85
2023-01-29T02:37:58.774Z,17.35
2023-01-29T02:40:31.986Z,18.85
2023-01-29T02:43:08.333Z,15.93
2023-01-29T02:45:45.702Z,19.25
2023-01-29T02:48:19.342Z,17.60
2023-01-29T02:50:52.350Z,18.70
2023-01-29T02:53:26.561Z,16.00
2023-01-29T02:55:59.753Z,15.57
2023-01-29T02:58:34.106Z,22.42
2023-01-29T03:01:07.568Z,15.93
2023-01-29T03:03:39.572Z,17.25
2023-01-29T03:06:18.289Z,15.13
2023-01-29T03:08:51.230Z,17.48
2023-01-29T03:11:19.287Z,17.85
2023-01-29T03:13:50.335Z,17.15
2023-01-29T03:16:24.481Z,19.73
2023-01-29T03:18:56.741Z,19.00
2023-01-29T03:21:55.197Z,16.30
2023-01-29T03:24:48.598Z,15.70
2023-01-29T03:27:37.731Z,18.42
2023-01-29T03:30:25.940Z,18.70
2023-01-29T03:33:05.379Z,18.55
2023-01-29T03:35:37.551Z,13.90
2023-01-29T03:38:09.881Z,13.63
2023-01-29T03:40:45.589Z,21.85
2023-01-29T03:43:21.685Z,16.33
2023-01-29T03:46:00.185Z,20.23
2023-01-29T03:48:35.886Z,21.83
2023-01-29T03:51:15.933Z,16.27
2023-01-29T03:53:49.615Z,14.48
2023-01-29T03:56:26.172Z,14.70
2023-01-29T03:58:59.645Z,15.35
2023-01-29T04:01:44.688Z,16.17
2023-01-29T04:04:17.938Z,18.70
2023-01-29T04:06:48.058Z,17.73
2023-01-29T04:09:20.234Z,17.33
2023-01-29T04:11:53.217Z,15.82
2023-01-29T04:14:20.996Z,16.13
2023-01-29T04:16:52.777Z,19.35
2023-01-29T04:19:26.088Z,17.92
2023-01-29T04:22:04.685Z,17.85
2023-01-29T04:24:32.623Z,16.17
2023-01-29T04:27:09.904Z,19.00
2023-01-29T04:29:48.237Z,18.20
2023-01-29T04:32:21.602Z,16.40
2023-01-29T04:35:00.822Z,15.63
2023-01-29T04:37:37.479Z,16.70
2023-01-29T04:40:19.480Z,16.90
2023-01-29T04:42:52.121Z,16.08
2023-01-29T04:45:26.889Z,17.30
2023-01-29T04:48:02.190Z,15.63
2023-01-29T04:50:39.120Z,15.77
2023-01-29T04:53:14.029Z,17.50
2023-01-29T04:55:46.453Z,18.40
2023-01-29T04:58:17.699Z,15.52
2023-01-29T05:00:48.931Z,22.85
2023-01-29T05:03:17.643Z,13.85
2023-01-29T05:05:48.999Z,18.38
2023-01-29T05:08:21.278Z,23.38
2023-01-29T05:10:51.233Z,17.23
2023-01-29T05:13:21.580Z,16.17
2023-01-29T05:15:53.420Z,16.65
2023-01-29T05:18:21.157Z,20.50
2023-01-29T05:20:51.149Z,19.77
2023-01-29T05:23:20.275Z,19.27
2023-01-29T05:25:48.700Z,17.65
2023-01-29T05:28:16.664Z,17.40
2023-01-29T05:30:46.246Z,19.42
2023-01-29T05:33:16.270Z,19.00
2023-01-29T05:35:44.321Z,15.20
2023-01-29T05:38:13.593Z,17.17
2023-01-29T05:40:42.026Z,20.05
2023-01-29T05:43:16.422Z,18.90
2023-01-29T05:45:44.083Z,18.70
2023-01-29T05:48:11.723Z,19.95
2023-01-29T05:50:39.319Z,17.08
2023-01-29T05:53:06.944Z,16.33
2023-01-29T05:55:35.911Z,21.33
2023-01-29T05:58:05.822Z,21.83
2023-01-29T06:00:33.727Z,24.92
2023-01-29T06:03:01.436Z,19.52
2023-01-29T06:05:29.154Z,20.27
2023-01-29T06:07:56.823Z,17.92
2023-01-29T06:10:25.073Z,22.33
2023-01-29T06:12:54.015Z,20.38
2023-01-29T06:15:21.685Z,20.20
2023-01-29T06:17:49.305Z,23.40
2023-01-29T06:20:17.449Z,24.73
2023-01-29T06:22:45.172Z,37.40
2023-01-29T06:25:12.781Z,19.40
2023-01-29T06:27:40.398Z,20.17
2023-01-29T06:30:10.822Z,20.25
2023-01-29T06:32:38.413Z,26.25
2023-01-29T06:35:10.728Z,20.63
2023-01-29T06:37:39.401Z,24.33
2023-01-29T06:40:08.311Z,24.35
2023-01-29T06:42:36.314Z,20.40
2023-01-29T06:45:04.119Z,19.42
2023-01-29T06:47:33.028Z,18.10
2023-01-29T06:50:00.636Z,22.88
2023-01-29T06:52:29.113Z,23.75
2023-01-29T06:54:56.885Z,19.40
2023-01-29T06:57:24.777Z,19.17
2023-01-29T06:59:52.380Z,20.13
2023-01-29T07:02:20.184Z,23.50
2023-01-29T07:04:49.080Z,21.92
2023-01-29T07:07:16.741Z,17.38
2023-01-29T07:09:44.478Z,19.20
2023-01-29T07:12:12.459Z,22.95
2023-01-29T07:14:40.147Z,20.77
2023-01-29T07:17:07.772Z,17.65
2023-01-29T07:19:35.274Z,18.65
2023-01-29T07:22:04.338Z,21.23
2023-01-29T07:24:32.079Z,18.77
2023-01-29T07:26:59.788Z,23.05
2023-01-29T07:29:27.389Z,22.08
2023-01-29T07:31:55.054Z,20.80
2023-01-29T07:34:22.601Z,19.17
2023-01-29T07:36:50.205Z,20.45
2023-01-29T07:39:19.057Z,22.05
2023-01-29T07:41:46.687Z,24.13
2023-01-29T07:44:17.462Z,23.02
2023-01-29T07:46:45.301Z,22.85
2023-01-29T07:49:13.143Z,20.48
2023-01-29T07:51:40.754Z,22.85
2023-01-29T07:54:08.236Z,23.48
2023-01-29T07:56:37.137Z,25.08
2023-01-29T07:59:04.796Z,23.35
2023-01-29T08:01:32.358Z,21.40
2023-01-29T08:03:59.984Z,24.95
2023-01-29T08:06:27.482Z,21.27
2023-01-29T08:08:55.701Z,23.73
2023-01-29T08:11:23.269Z,27.67
2023-01-29T08:13:52.615Z,24.35
2023-01-29T08:16:20.164Z,30.17
2023-01-29T08:18:48.801Z,24.60
2023-01-29T08:21:16.899Z,28.10
2023-01-29T08:23:44.483Z,27.05
2023-01-29T08:26:12.174Z,25.05
2023-01-29T08:28:39.833Z,28.90
2023-01-29T08:31:15.364Z,27.92
2023-01-29T08:33:42.909Z,25.67
2023-01-29T08:36:11.191Z,28.98
2023-01-29T08:38:38.731Z,27.83
2023-01-29T08:41:07.117Z,27.17
2023-01-29T08:43:36.809Z,34.88
2023-01-29T08:46:05.356Z,33.90
2023-01-29T08:48:34.872Z,29.02
2023-01-29T08:51:04.346Z,32.83
2023-01-29T08:53:32.301Z,29.83
2023-01-29T08:55:59.896Z,31.98
2023-01-29T08:58:27.480Z,35.53
2023-01-29T09:00:55.076Z,31.35
2023-01-29T09:03:22.714Z,31.58
2023-01-29T09:05:51.602Z,36.47
2023-01-29T09:08:19.324Z,38.88
2023-01-29T09:10:46.893Z,40.58
2023-01-29T09:13:14.442Z,40.20
2023-01-29T09:15:42.055Z,35.10
2023-01-29T09:18:09.623Z,36.50
2023-01-29T09:20:38.101Z,37.13
2023-01-29T09:23:07.761Z,44.53
2023-01-29T09:25:35.725Z,35.63
2023-01-29T09:28:03.430Z,38.67
2023-01-29T09:30:33.325Z,34.42
2023-01-29T09:33:01.569Z,36.10
2023-01-29T09:35:29.111Z,35.63
2023-01-29T09:37:56.925Z,35.22
2023-01-29T09:40:34.705Z,37.85
2023-01-29T09:43:05.170Z,35.60
2023-01-29T09:45:33.472Z,41.40
2023-01-29T09:48:05.612Z,34.30
2023-01-29T09:50:37.409Z,40.95
2023-01-29T09:53:13.377Z,39.17
2023-01-29T09:55:46.758Z,37.60
2023-01-29T09:58:21.518Z,37.80
2023-01-29T10:00:59.835Z,39.78
2023-01-29T10:03:42.798Z,39.05
2023-01-29T10:06:26.424Z,39.05
2023-01-29T10:09:30.013Z,42.20
2023-01-29T10:12:06.825Z,41.30
2023-01-29T10:14:41.226Z,41.33
2023-01-29T10:17:22.369Z,44.78
2023-01-29T10:20:04.033Z,41.85
2023-01-29T10:22:45.262Z,52.75
2023-01-29T10:25:16.640Z,43.80
2023-01-29T10:27:50.345Z,46.72
2023-01-29T10:30:25.506Z,47.65
2023-01-29T10:32:54.422Z,45.35
2023-01-29T10:35:25.383Z,49.03
2023-01-29T10:37:54.915Z,52.72
2023-01-29T10:40:24.319Z,46.50
2023-01-29T10:43:02.695Z,45.33
2023-01-29T10:45:38.582Z,43.33
2023-01-29T10:48:36.352Z,43.35
2023-01-29T10:51:16.088Z,42.28
2023-01-29T10:53:54.284Z,42.95
2023-01-29T10:56:53.253Z,37.58
2023-01-29T10:59:36.301Z,42.83
2023-01-29T11:02:04.380Z,41.25
2023-01-29T11:04:32.978Z,44.60
2023-01-29T11:07:01.203Z,48.60
2023-01-29T11:09:33.823Z,38.75
2023-01-29T11:12:05.206Z,40.67
2023-01-29T11:14:43.605Z,41.65
2023-01-29T11:17:16.969Z,35.63
2023-01-29T11:19:47.039Z,38.75
2023-01-29T11:22:16.213Z,36.10
2023-01-29T11:24:44.011Z,39.75
2023-01-29T11:27:16.426Z,34.08
2023-01-29T11:29:47.934Z,35.55
2023-01-29T11:32:26.771Z,32.22
2023-01-29T11:34:59.576Z,33.22
2023-01-29T11:37:34.581Z,29.80
2023-01-29T11:40:02.338Z,31.52
2023-01-29T11:42:33.678Z,31.08
2023-01-29T11:45:02.552Z,31.17
2023-01-29T11:47:31.595Z,30.00
2023-01-29T11:50:02.338Z,30.73
2023-01-29T11:52:38.727Z,28.90
2023-01-29T11:55:15.042Z,31.83
2023-01-29T11:57:44.191Z,30.75
2023-01-29T12:00:22.755Z,28.73
2023-01-29T12:02:55.475Z,35.58
2023-01-29T12:05:25.311Z,27.42
2023-01-29T12:07:55.483Z,31.65
2023-01-29T12:10:35.481Z,27.70
2023-01-29T12:13:07.587Z,28.23
2023-01-29T12:15:37.266Z,28.48
2023-01-29T12:18:12.795Z,29.98
2023-01-29T12:20:44.884Z,30.40
2023-01-29T12:23:28.296Z,32.38
2023-01-29T12:26:02.221Z,28.40
2023-01-29T12:28:43.552Z,33.92
2023-01-29T12:31:25.086Z,28.80
2023-01-29T12:34:00.186Z,31.65
2023-01-29T12:36:31.072Z,28.60
2023-01-29T12:38:59.544Z,31.83
2023-01-29T12:41:37.033Z,30.73
2023-01-29T12:44:12.765Z,31.88
2023-01-29T12:46:46.623Z,29.75
2023-01-29T12:49:18.217Z,31.77
2023-01-29T12:51:54.260Z,32.08
2023-01-29T12:54:28.595Z,29.63
2023-01-29T12:57:01.114Z,27.88
2023-01-29T12:59:34.058Z,29.13
2023-01-29T13:02:15.842Z,25.90
2023-01-29T13:04:47.937Z,32.70
2023-01-29T13:07:19.789Z,31.60
2023-01-29T13:09:51.698Z,30.50
2023-01-29T13:12:21.301Z,26.33
2023-01-29T13:14:53.582Z,29.88
2023-01-29T13:17:29.059Z,27.30
2023-01-29T13:19:59.313Z,28.30
2023-01-29T13:22:29.287Z,32.45
2023-01-29T13:25:04.591Z,28.98
2023-01-29T13:27:34.849Z,28.25
2023-01-29T13:30:03.148Z,27.05
2023-01-29T13:32:35.295Z,25.00
2023-01-29T13:35:06.953Z,27.92
2023-01-29T13:37:36.142Z,32.28
2023-01-29T13:40:06.754Z,29.45
2023-01-29T13:42:40.935Z,33.63
2023-01-29T13:45:10.706Z,29.80
2023-01-29T13:47:40.768Z,28.50
2023-01-29T13:50:14.248Z,32.47
2023-01-29T13:52:45.129Z,27.70
2023-01-29T13:55:26.112Z,34.70
2023-01-29T13:57:56.262Z,32.08
2023-01-29T14:01:01.289Z,31.73
2023-01-29T14:04:10.178Z,31.65
2023-01-29T14:06:42.330Z,27.55
2023-01-29T14:09:35.225Z,28.05
2023-01-29T14:12:03.098Z,33.60
2023-01-29T14:15:06.143Z,28.98
2023-01-29T14:17:33.764Z,28.25
2023-01-29T14:20:15.995Z,35.25
2023-01-29T14:22:44.306Z,31.70
2023-01-29T14:25:18.787Z,29.20
2023-01-29T14:27:48.753Z,33.15
2023-01-29T14:30:19.326Z,32.78
2023-01-29T14:32:49.774Z,32.80
2023-01-29T14:35:21.635Z,30.95
2023-01-29T14:37:51.591Z,33.35
2023-01-29T14:40:22.919Z,30.45
2023-01-29T14:42:59.774Z,27.67
2023-01-29T14:45:29.371Z,29.65
2023-01-29T14:48:03.341Z,32.05
2023-01-29T14:50:47.946Z,26.15
2023-01-29T14:53:45.281Z,28.75
2023-01-29T14:56:16.850Z,29.38
2023-01-29T14:58:47.102Z,29.92
2023-01-29T15:01:24.431Z,33.05
2023-01-29T15:03:54.337Z,30.23
2023-01-29T15:06:30.072Z,28.08
2023-01-29T15:09:04.967Z,31.90
2023-01-29T15:11:38.486Z,30.67
2023-01-29T15:14:23.998Z,33.58
2023-01-29T15:17:03.127Z,34.55
2023-01-29T15:19:36.232Z,34.90
2023-01-29T15:22:07.954Z,30.90
2023-01-29T15:24:36.020Z,37.28
2023-01-29T15:27:04.081Z,35.00
2023-01-29T15:29:31.836Z,34.95
2023-01-29T15:31:59.908Z,36.55
2023-01-29T15:34:27.814Z,36.80
2023-01-29T15:36:55.328Z,35.50
2023-01-29T15:39:26.961Z,37.25
2023-01-29T15:42:12.909Z,37.50
2023-01-29T15:44:46.078Z,37.08
2023-01-29T15:47:15.163Z,43.45
2023-01-29T15:49:43.320Z,42.20
2023-01-29T15:52:18.942Z,38.70
2023-01-29T15:54:48.443Z,34.92
2023-01-29T15:57:22.487Z,36.25
2023-01-29T15:59:52.079Z,36.40
2023-01-29T16:02:22.677Z,39.45
2023-01-29T16:04:50.460Z,33.90
2023-01-29T16:07:18.085Z,34.35
2023-01-29T16:09:45.890Z,37.85
2023-01-29T16:12:15.212Z,38.63
2023-01-29T16:14:44.151Z,36.20
2023-01-29T16:17:23.313Z,32.03
2023-01-29T16:19:57.194Z,35.40
2023-01-29T16:22:25.940Z,32.90
2023-01-29T16:24:54.101Z,33.47
2023-01-29T16:27:26.028Z,32.10
2023-01-29T16:29:53.769Z,35.63
2023-01-29T16:32:21.525Z,33.42
2023-01-29T16:34:52.084Z,33.20
2023-01-29T16:37:23.415Z,36.63
2023-01-29T16:39:53.317Z,37.65
2023-01-29T16:42:25.187Z,38.70
2023-01-29T16:44:55.507Z,37.85
2023-01-29T16:47:32.643Z,33.00
2023-01-29T16:50:02.084Z,34.95
2023-01-29T16:52:31.597Z,29.45
2023-01-29T16:55:16.800Z,36.33
2023-01-29T16:57:50.992Z,29.48
2023-01-29T17:00:22.772Z,36.60
2023-01-29T17:02:53.370Z,38.38
2023-01-29T17:05:24.592Z,35.50
2023-01-29T17:07:52.502Z,38.58
2023-01-29T17:10:22.402Z,31.38
2023-01-29T17:12:58.226Z,31.40
2023-01-29T17:15:31.666Z,30.38
2023-01-29T17:18:00.474Z,29.45
2023-01-29T17:20:28.599Z,30.95
2023-01-29T17:22:57.557Z,27.95
2023-01-29T17:25:25.374Z,29.77
2023-01-29T17:27:54.317Z,32.05
2023-01-29T17:30:24.569Z,33.13
2023-01-29T17:32:52.138Z,30.77
2023-01-29T17:35:21.445Z,29.58
2023-01-29T17:37:49.154Z,29.35
2023-01-29T17:40:30.723Z,31.52
2023-01-29T17:42:59.784Z,26.75
2023-01-29T17:45:27.534Z,29.05
2023-01-29T17:47:55.147Z,30.13
2023-01-29T17:50:25.537Z,28.17
2023-01-29T17:52:53.819Z,29.90
2023-01-29T17:55:22.012Z,28.67
2023-01-29T17:57:49.639Z,26.85
2023-01-29T18:00:21.310Z,30.33
2023-01-29T18:02:49.180Z,33.83
2023-01-29T18:05:18.253Z,33.70
2023-01-29T18:07:47.642Z,34.50
2023-01-29T18:10:18.417Z,32.13
2023-01-29T18:12:46.304Z,32.40
2023-01-29T18:15:15.267Z,30.48
2023-01-29T18:17:45.065Z,29.85
2023-01-29T18:20:22.647Z,31.33
2023-01-29T18:22:50.541Z,33.72
2023-01-29T18:25:18.950Z,32.97
2023-01-29T18:27:47.489Z,31.90
2023-01-29T18:30:16.570Z,31.90
2023-01-29T18:32:47.393Z,31.98
2023-01-29T18:35:15.237Z,30.33
2023-01-29T18:37:42.922Z,31.27
2023-01-29T18:40:13.876Z,32.72
2023-01-29T18:42:41.773Z,32.50
2023-01-29T18:45:09.935Z,34.50
2023-01-29T18:47:37.508Z,30.77
2023-01-29T18:50:08.042Z,33.40
2023-01-29T18:52:35.639Z,30.00
2023-01-29T18:55:03.265Z,34.85
2023-01-29T18:58:26.349Z,31.83
2023-01-29T19:00:19.174Z,31.60
2023-01-29T19:02:46.732Z,37.25
2023-01-29T19:05:17.340Z,34.78
2023-01-29T19:07:45.165Z,38.33
2023-01-29T19:10:15.708Z,36.88
2023-01-29T19:12:43.381Z,35.97
2023-01-29T19:15:12.020Z,39.05
2023-01-29T19:17:39.808Z,40.20
2023-01-29T19:20:09.572Z,40.28
2023-01-29T19:22:38.418Z,43.05
2023-01-29T19:25:06.703Z,41.00
2023-01-29T19:27:34.406Z,41.17
2023-01-29T19:30:02.068Z,42.33
2023-01-29T19:32:30.092Z,45.00
2023-01-29T19:34:58.242Z,46.20
2023-01-29T19:37:26.085Z,43.15
2023-01-29T19:39:55.098Z,47.45
2023-01-29T19:42:22.681Z,42.88
2023-01-29T19:44:51.018Z,46.17
2023-01-29T19:47:18.692Z,46.72
2023-01-29T19:49:46.363Z,48.45
2023-01-29T19:52:49.907Z,45.75
2023-01-29T19:55:21.219Z,45.28
2023-01-29T19:57:49.160Z,46.30
2023-01-29T20:00:18.378Z,47.30
2023-01-29T20:02:46.037Z,49.40
2023-01-29T20:05:13.735Z,49.08
2023-01-29T20:07:42.390Z,46.80
2023-01-29T20:10:17.108Z,49.63
2023-01-29T20:12:47.111Z,52.15
2023-01-29T20:15:15.467Z,47.65
2023-01-29T20:17:43.537Z,51.50
2023-01-29T20:20:11.968Z,44.13
2023-01-29T20:22:39.504Z,49.53
2023-01-29T20:25:07.890Z,48.55
2023-01-29T20:27:35.515Z,57.47
2023-01-29T20:30:05.045Z,48.38
2023-01-29T20:32:32.938Z,49.47
2023-01-29T20:35:00.523Z,52.25
2023-01-29T20:37:28.089Z,53.25
2023-01-29T20:39:55.815Z,48.95
2023-01-29T20:42:23.441Z,52.97
2023-01-29T20:44:50.968Z,48.08
2023-01-29T20:47:19.833Z,49.78
2023-01-29T20:49:47.553Z,48.88
2023-01-29T20:52:15.100Z,55.97
2023-01-29T20:54:42.672Z,49.58
2023-01-29T20:57:10.503Z,45.33
2023-01-29T20:59:38.036Z,45.72
2023-01-29T21:02:05.658Z,53.90
2023-01-29T21:04:34.480Z,47.97
2023-01-29T21:07:02.108Z,53.60
2023-01-29T21:09:29.713Z,50.75
2023-01-29T21:11:57.359Z,51.72
2023-01-29T21:14:24.936Z,50.67
2023-01-29T21:16:52.659Z,51.65
2023-01-29T21:19:20.337Z,50.53
2023-01-29T21:21:49.334Z,51.33
2023-01-29T21:24:18.951Z,51.72
2023-01-29T21:26:46.880Z,53.63
2023-01-29T21:29:14.963Z,53.40
2023-01-29T21:31:43.093Z,53.08
2023-01-29T21:34:10.679Z,50.65
2023-01-29T21:36:38.601Z,46.45
2023-01-29T21:39:17.325Z,48.47
2023-01-29T21:42:02.649Z,44.65
2023-01-29T21:44:30.224Z,46.70
2023-01-29T21:46:57.979Z,50.95
2023-01-29T21:49:26.995Z,47.72
2023-01-29T21:51:54.621Z,53.25
2023-01-29T21:54:23.458Z,50.33
2023-01-29T21:56:50.997Z,50.22
2023-01-29T21:59:18.545Z,53.42
2023-01-29T22:01:46.123Z,47.72
2023-01-29T22:04:15.662Z,42.50
2023-01-29T22:06:43.358Z,49.95
2023-01-29T22:09:10.929Z,42.60
2023-01-29T22:11:41.638Z,44.30
2023-01-29T22:14:09.347Z,46.97
2023-01-29T22:16:37.067Z,43.00
2023-01-29T22:19:04.758Z,47.55
2023-01-29T22:21:34.464Z,50.92
2023-01-29T22:24:03.506Z,44.50
2023-01-29T22:26:32.099Z,48.10
2023-01-29T22:29:01.002Z,43.88
2023-01-29T22:31:28.676Z,48.40
2023-01-29T22:33:56.369Z,46.80
2023-01-29T22:36:23.937Z,45.28
2023-01-29T22:38:51.545Z,47.63
2023-01-29T22:41:19.107Z,44.00
2023-01-29T22:43:46.814Z,48.67
2023-01-29T22:46:15.937Z,44.38
2023-01-29T22:48:43.548Z,44.20
2023-01-29T22:51:11.704Z,46.75
2023-01-29T22:53:40.506Z,57.15
2023-01-29T22:56:09.206Z,51.05
2023-01-29T22:58:36.923Z,48.97
2023-01-29T23:01:05.204Z,50.70
2023-01-29T23:03:34.099Z,48.83
2023-01-29T23:06:02.010Z,44.88
2023-01-29T23:08:29.713Z,53.40
2023-01-29T23:11:13.648Z,46.65
2023-01-29T23:13:42.341Z,46.45
2023-01-29T23:16:10.035Z,50.85
2023-01-29T23:18:39.367Z,45.50
2023-01-29T23:21:07.269Z,47.47
2023-01-29T23:23:36.118Z,46.25
2023-01-29T23:26:23.663Z,46.20
2023-01-29T23:28:51.247Z,43.25
2023-01-29T23:31:18.999Z,39.33
2023-01-29T23:33:48.427Z,42.80
2023-01-29T23:36:15.989Z,40.13
2023-01-29T23:38:43.490Z,44.15
2023-01-29T23:41:11.043Z,46.20
2023-01-29T23:43:38.669Z,45.10
2023-01-29T23:46:06.540Z,42.17
2023-01-29T23:48:35.228Z,49.03
2023-01-29T23:51:04.323Z,44.97
2023-01-29T23:53:31.883Z,41.75
2023-01-29T23:56:00.590Z,43.38
2023-01-29T23:58:29.575Z,42.35
